createdAt,value
2022-11-24T00:00:57.430Z,99437.23
2022-11-24T00:03:02.397Z,99436.13
2022-11-24T00:05:07.292Z,99435.3
2022-11-24T00:07:12.003Z,99442.13
2022-11-24T00:09:16.693Z,99441.28
2022-11-24T00:11:21.291Z,99440.84
2022-11-24T00:13:25.842Z,99436.98
2022-11-24T00:15:30.465Z,99441.77
2022-11-24T00:17:35.030Z,99445.67
2022-11-24T00:19:39.645Z,99445.75
2022-11-24T00:21:44.245Z,99440.2
2022-11-24T00:23:48.807Z,99441.8
2022-11-24T00:25:53.362Z,99446.73
2022-11-24T00:27:57.983Z,99449.66
2022-11-24T00:30:02.569Z,99447.67
2022-11-24T00:32:07.216Z,99447.71
2022-11-24T00:34:11.797Z,99448.77
2022-11-24T00:36:16.502Z,99446.69
2022-11-24T00:38:21.142Z,99449.3
2022-11-24T00:40:26.460Z,99452.19
2022-11-24T00:42:38.390Z,99452.34
2022-11-24T00:44:43.001Z,99456.99
2022-11-24T00:46:48.002Z,99455.77
2022-11-24T00:48:52.840Z,99457.44
2022-11-24T00:50:57.456Z,99453.48
2022-11-24T00:53:02.024Z,99454.73
2022-11-24T00:55:06.713Z,99454.58
2022-11-24T00:57:11.308Z,99450.72
2022-11-24T00:59:15.929Z,99447.58
2022-11-24T01:01:20.730Z,99447.34
2022-11-24T01:03:25.663Z,99443.84
2022-11-24T01:05:30.292Z,99450.05
2022-11-24T01:07:35.036Z,99452.59
2022-11-24T01:09:39.769Z,99451.44
2022-11-24T01:11:44.347Z,99447.17
2022-11-24T01:13:48.958Z,99448.33
2022-11-24T01:15:53.709Z,99448.49
2022-11-24T01:17:58.501Z,99447.55
2022-11-24T01:20:03.109Z,99449.02
2022-11-24T01:22:07.802Z,99448.96
2022-11-24T01:24:12.368Z,99449.68
2022-11-24T01:26:16.940Z,99449.05
2022-11-24T01:28:21.509Z,99447.42
2022-11-24T01:30:26.104Z,99451.25
2022-11-24T01:32:30.663Z,99455.56
2022-11-24T01:34:35.812Z,99458.63
2022-11-24T01:36:40.528Z,99460.94
2022-11-24T01:38:45.088Z,99459.68
2022-11-24T01:40:49.680Z,99460.8
2022-11-24T01:42:54.314Z,99460.88
2022-11-24T01:44:58.866Z,99462.04
2022-11-24T01:47:03.463Z,99467.02
2022-11-24T01:49:08.183Z,99464.48
2022-11-24T01:51:12.877Z,99465.17
2022-11-24T01:53:17.478Z,99466.66
2022-11-24T01:55:22.057Z,99469.27
2022-11-24T01:57:26.681Z,99471.07
2022-11-24T01:59:31.257Z,99467.92
2022-11-24T02:01:35.970Z,99465.91
2022-11-24T02:03:40.743Z,99468.25
2022-11-24T02:05:45.412Z,99471.5
2022-11-24T02:07:50.266Z,99468.63
2022-11-24T02:09:54.987Z,99461.28
2022-11-24T02:11:59.563Z,99458.95
2022-11-24T02:14:04.174Z,99460.53
2022-11-24T02:16:08.923Z,99460.91
2022-11-24T02:18:13.648Z,99457.02
2022-11-24T02:20:18.274Z,99458.05
2022-11-24T02:22:22.864Z,99463.83
2022-11-24T02:24:27.483Z,99463.05
2022-11-24T02:26:32.229Z,99459.93
2022-11-24T02:28:36.806Z,99455.36
2022-11-24T02:30:41.526Z,99455.7
2022-11-24T02:32:46.278Z,99460.21
2022-11-24T02:34:50.879Z,99455.73
2022-11-24T02:36:55.481Z,99455.23
2022-11-24T02:39:00.074Z,99455.75
2022-11-24T02:41:04.657Z,99449.66
2022-11-24T02:43:09.255Z,99451.8
2022-11-24T02:45:13.903Z,99449.8
2022-11-24T02:47:18.491Z,99450.28
2022-11-24T02:49:23.191Z,99457.99
2022-11-24T02:51:27.769Z,99455.42
2022-11-24T02:53:32.378Z,99455.39
2022-11-24T02:55:36.971Z,99460.5
2022-11-24T02:57:41.567Z,99462.88
2022-11-24T02:59:46.172Z,99468.56
2022-11-24T03:01:50.977Z,99466.47
2022-11-24T03:03:55.811Z,99467.14
2022-11-24T03:06:00.388Z,99469.41
2022-11-24T03:08:05.047Z,99475.09
2022-11-24T03:10:09.661Z,99475.54
2022-11-24T03:12:14.254Z,99479.09
2022-11-24T03:14:18.843Z,99483.52
2022-11-24T03:16:23.553Z,99481.6
2022-11-24T03:18:28.244Z,99481.2
2022-11-24T03:20:32.819Z,99480.62
2022-11-24T03:22:37.415Z,99483.26
2022-11-24T03:24:42.072Z,99487.42
2022-11-24T03:26:46.730Z,99486.23
2022-11-24T03:28:51.298Z,99485.49
2022-11-24T03:30:56.039Z,99486.61
2022-11-24T03:33:00.756Z,99488.44
2022-11-24T03:35:05.339Z,99486.03
2022-11-24T03:37:09.869Z,99488.27
2022-11-24T03:39:14.478Z,99489.28
2022-11-24T03:41:19.073Z,99491.14
2022-11-24T03:43:23.665Z,99496.89
2022-11-24T03:45:47.242Z,99499.8
2022-11-24T03:47:51.907Z,99498.85
2022-11-24T03:49:56.578Z,99499.73
2022-11-24T03:52:08.298Z,99501.97
2022-11-24T03:54:13.180Z,99495.47
2022-11-24T03:56:17.785Z,99497.59
2022-11-24T03:58:22.481Z,99495.4
2022-11-24T04:00:27.125Z,99494.89
2022-11-24T04:02:31.878Z,99493.47
2022-11-24T04:04:36.924Z,99493.84
2022-11-24T04:06:41.522Z,99491.1
2022-11-24T04:08:46.134Z,99487.75
2022-11-24T04:10:50.763Z,99485.8
2022-11-24T04:12:55.442Z,99491.44
2022-11-24T04:15:00.016Z,99490.89
2022-11-24T04:17:04.610Z,99491.7
2022-11-24T04:19:09.169Z,99492.18
2022-11-24T04:21:13.806Z,99493.64
2022-11-24T04:23:18.358Z,99495.06
2022-11-24T04:25:23.064Z,99490.25
2022-11-24T04:27:27.668Z,99487.17
2022-11-24T04:29:32.297Z,99488.53
2022-11-24T04:31:36.997Z,99490.72
2022-11-24T04:33:41.760Z,99493.19
2022-11-24T04:35:46.490Z,99492.92
2022-11-24T04:37:51.103Z,99501.11
2022-11-24T04:39:55.708Z,99492.48
2022-11-24T04:42:00.301Z,99497.94
2022-11-24T04:44:04.864Z,99501.8
2022-11-24T04:46:09.610Z,99504.8
2022-11-24T04:48:14.346Z,99507.34
2022-11-24T04:50:18.965Z,99512.38
2022-11-24T04:52:23.744Z,99515.45
2022-11-24T04:54:28.305Z,99517.06
2022-11-24T04:56:32.863Z,99519.45
2022-11-24T04:58:37.475Z,99525.23
2022-11-24T05:00:42.096Z,99529.39
2022-11-24T05:02:46.734Z,99532.77
2022-11-24T05:04:51.325Z,99536.45
2022-11-24T05:06:55.889Z,99540.39
2022-11-24T05:09:00.453Z,99543.06
2022-11-24T05:11:04.991Z,99549.82
2022-11-24T05:13:09.477Z,99549.78
2022-11-24T05:15:13.882Z,99553.91
2022-11-24T05:17:18.342Z,99559.83
2022-11-24T05:19:22.863Z,99558.33
2022-11-24T05:21:30.835Z,99561.84
2022-11-24T05:23:35.346Z,99558.61
2022-11-24T05:25:46.278Z,99555.89
2022-11-24T05:27:52.019Z,99557.17
2022-11-24T05:29:56.558Z,99554.16
2022-11-24T05:32:01.056Z,99558.75
2022-11-24T05:34:05.526Z,99560.27
2022-11-24T05:36:09.971Z,99553.89
2022-11-24T05:38:14.399Z,99556.05
2022-11-24T05:40:18.947Z,99556.86
2022-11-24T05:42:23.447Z,99557.8
2022-11-24T05:44:28.057Z,99555.63
2022-11-24T05:46:32.694Z,99558.97
2022-11-24T05:48:37.493Z,99555.27
2022-11-24T05:50:42.030Z,99554.48
2022-11-24T05:52:46.477Z,99554.81
2022-11-24T05:54:50.859Z,99556.58
2022-11-24T05:56:55.214Z,99558.02
2022-11-24T05:58:59.529Z,99561.95
2022-11-24T06:01:08.928Z,99567.6
2022-11-24T06:03:13.410Z,99570.85
2022-11-24T06:05:17.773Z,99573.86
2022-11-24T06:07:22.244Z,99576.23
2022-11-24T06:09:26.624Z,99577.44
2022-11-24T06:11:30.906Z,99583.06
2022-11-24T06:13:35.697Z,99586.86
2022-11-24T06:15:40.477Z,99591.44
2022-11-24T06:17:44.807Z,99597.23
2022-11-24T06:19:49.098Z,99599.5
2022-11-24T06:21:53.401Z,99603.03
2022-11-24T06:23:57.712Z,99606.01
2022-11-24T06:26:02.077Z,99613.66
2022-11-24T06:28:06.431Z,99616.1
2022-11-24T06:30:10.886Z,99615.19
2022-11-24T06:32:15.229Z,99618.34
2022-11-24T06:34:19.623Z,99620.95
2022-11-24T06:36:23.945Z,99626.38
2022-11-24T06:38:28.333Z,99631.3
2022-11-24T06:40:32.675Z,99637.47
2022-11-24T06:42:36.978Z,99641.94
2022-11-24T06:44:41.255Z,99647.5
2022-11-24T06:46:45.531Z,99650.24
2022-11-24T06:48:49.861Z,99654.24
2022-11-24T06:50:54.140Z,99658.64
2022-11-24T06:52:58.453Z,99660.49
2022-11-24T06:55:02.754Z,99665.2
2022-11-24T06:57:07.117Z,99671.52
2022-11-24T06:59:11.496Z,99673.84
2022-11-24T07:01:15.960Z,99679.45
2022-11-24T07:03:20.807Z,99683.95
2022-11-24T07:05:25.304Z,99682.55
2022-11-24T07:07:29.740Z,99683.59
2022-11-24T07:09:34.151Z,99687.86
2022-11-24T07:11:38.464Z,99688.63
2022-11-24T07:13:42.784Z,99689.41
2022-11-24T07:15:47.097Z,99690.05
2022-11-24T07:17:51.419Z,99692.18
2022-11-24T07:19:55.759Z,99692.92
2022-11-24T07:22:00.031Z,99691.47
2022-11-24T07:24:04.357Z,99695.51
2022-11-24T07:26:08.685Z,99693.64
2022-11-24T07:28:13.016Z,99694.66
2022-11-24T07:30:17.330Z,99698.29
2022-11-24T07:32:21.851Z,99696.22
2022-11-24T07:34:26.305Z,99693.97
2022-11-24T07:36:30.596Z,99690.33
2022-11-24T07:38:34.889Z,99691.78
2022-11-24T07:40:39.299Z,99692.42
2022-11-24T07:42:43.628Z,99696.84
2022-11-24T07:44:47.966Z,99699.05
2022-11-24T07:46:52.199Z,99700.03
2022-11-24T07:48:56.527Z,99702.95
2022-11-24T07:51:00.842Z,99703.83
2022-11-24T07:53:05.070Z,99700.56
2022-11-24T07:55:09.366Z,99700.99
2022-11-24T07:57:13.677Z,99704.22
2022-11-24T07:59:17.977Z,99693.89
2022-11-24T08:01:22.649Z,99692.98
2022-11-24T08:03:27.260Z,99688.68
2022-11-24T08:05:31.775Z,99692.08
2022-11-24T08:07:36.288Z,99692.02
2022-11-24T08:09:40.775Z,99694.63
2022-11-24T08:11:45.120Z,99695.95
2022-11-24T08:13:49.440Z,99695.52
2022-11-24T08:15:53.756Z,99695.05
2022-11-24T08:17:58.114Z,99699.26
2022-11-24T08:20:02.437Z,99701.19
2022-11-24T08:22:06.793Z,99704.72
2022-11-24T08:24:11.157Z,99706.25
2022-11-24T08:26:15.497Z,99710.59
2022-11-24T08:28:19.814Z,99720.7
2022-11-24T08:30:24.269Z,99719.69
2022-11-24T08:32:28.920Z,99724.33
2022-11-24T08:34:34.081Z,99723.55
2022-11-24T08:36:38.983Z,99724.13
2022-11-24T08:38:43.335Z,99725.78
2022-11-24T08:40:47.724Z,99727.38
2022-11-24T08:42:52.028Z,99733.92
2022-11-24T08:45:02.406Z,99734.73
2022-11-24T08:47:23.953Z,99734.94
2022-11-24T08:49:28.343Z,99736.29
2022-11-24T08:51:32.718Z,99739.08
2022-11-24T08:53:37.018Z,99735.78
2022-11-24T08:55:41.416Z,99743.95
2022-11-24T08:57:45.744Z,99743.63
2022-11-24T08:59:50.094Z,99744.84
2022-11-24T09:01:54.529Z,99746.28
2022-11-24T09:03:59.294Z,99746.3
2022-11-24T09:06:03.746Z,99746.46
2022-11-24T09:08:08.124Z,99748.08
2022-11-24T09:10:12.425Z,99745.06
2022-11-24T09:12:16.777Z,99745.19
2022-11-24T09:14:21.098Z,99751.16
2022-11-24T09:16:25.569Z,99751.37
2022-11-24T09:18:31.670Z,99750.86
2022-11-24T09:20:35.978Z,99748.97
2022-11-24T09:22:40.353Z,99752.29
2022-11-24T09:24:44.676Z,99753.11
2022-11-24T09:26:49.082Z,99754.75
2022-11-24T09:28:53.417Z,99756.75
2022-11-24T09:30:58.021Z,99752.78
2022-11-24T09:33:02.493Z,99755.47
2022-11-24T09:35:06.834Z,99757.95
2022-11-24T09:37:11.197Z,99758.31
2022-11-24T09:39:15.523Z,99753.48
2022-11-24T09:41:19.841Z,99756.3
2022-11-24T09:43:24.195Z,99756.23
2022-11-24T09:46:05.312Z,99752.56
2022-11-24T09:48:10.292Z,99753.78
2022-11-24T09:50:14.664Z,99755.98
2022-11-24T09:52:18.961Z,99756.04
2022-11-24T09:54:23.324Z,99756.23
2022-11-24T09:56:27.669Z,99756.64
2022-11-24T09:58:32.026Z,99755.95
2022-11-24T10:00:36.380Z,99752.94
2022-11-24T10:02:40.706Z,99754.02
2022-11-24T10:04:45.231Z,99758.76
2022-11-24T10:06:49.789Z,99756.38
2022-11-24T10:08:54.135Z,99758.13
2022-11-24T10:10:58.488Z,99755.92
2022-11-24T10:13:02.876Z,99758.7
2022-11-24T10:15:07.192Z,99754.08
2022-11-24T10:17:11.534Z,99756.73
2022-11-24T10:19:15.935Z,99754.42
2022-11-24T10:21:20.399Z,99754.42
2022-11-24T10:23:24.762Z,99756.73
2022-11-24T10:25:29.139Z,99753.91
2022-11-24T10:27:33.498Z,99756.73
2022-11-24T10:29:38.266Z,99754.12
2022-11-24T10:31:42.687Z,99753.28
2022-11-24T10:33:47.034Z,99756.59
2022-11-24T10:35:51.475Z,99758.3
2022-11-24T10:37:55.806Z,99761.47
2022-11-24T10:40:01.508Z,99760.84
2022-11-24T10:42:05.839Z,99768.03
2022-11-24T10:44:10.241Z,99766.77
2022-11-24T10:46:14.989Z,99764.42
2022-11-24T10:48:19.440Z,99761.69
2022-11-24T10:50:23.788Z,99757.61
2022-11-24T10:52:28.078Z,99752.83
2022-11-24T10:54:32.399Z,99753.05
2022-11-24T10:56:36.734Z,99753.05
2022-11-24T10:58:41.036Z,99754.16
2022-11-24T11:00:45.371Z,99753.27
2022-11-24T11:02:49.891Z,99758.12
2022-11-24T11:04:54.338Z,99761.88
2022-11-24T11:06:58.641Z,99764.52
2022-11-24T11:09:02.983Z,99767.88
2022-11-24T11:11:07.300Z,99761.22
2022-11-24T11:13:11.646Z,99759.08
2022-11-24T11:15:15.969Z,99760.06
2022-11-24T11:17:20.427Z,99761.55
2022-11-24T11:19:49.959Z,99762.09
2022-11-24T11:21:58.933Z,99763.27
2022-11-24T11:24:03.238Z,99763.55
2022-11-24T11:26:07.562Z,99762.28
2022-11-24T11:28:18.994Z,99762.47
2022-11-24T11:34:03.525Z,99756.48
2022-11-24T11:36:14.055Z,99756.55
2022-11-24T11:38:18.432Z,99756.95
2022-11-24T11:40:22.742Z,99758.75
2022-11-24T11:43:02.988Z,99763.58
2022-11-24T11:45:07.652Z,99761.41
2022-11-24T11:47:12.182Z,99765.48
2022-11-24T11:49:16.702Z,99766.27
2022-11-24T11:51:25.436Z,99768.07
2022-11-24T11:53:30.199Z,99772.65
2022-11-24T11:55:34.542Z,99774.55
2022-11-24T11:57:38.915Z,99775.03
2022-11-24T11:59:43.275Z,99777.3
2022-11-24T12:01:47.596Z,99776.8
2022-11-24T12:03:52.206Z,99775.27
2022-11-24T12:05:56.835Z,99770.94
2022-11-24T12:08:10.174Z,99770.94
2022-11-24T12:10:22.653Z,99768.61
2022-11-24T12:12:26.998Z,99766.83
2022-11-24T12:14:31.294Z,99769.02
2022-11-24T12:16:35.742Z,99768.6
2022-11-24T12:19:10.188Z,99761.39
2022-11-24T12:21:14.555Z,99766.93
2022-11-24T12:23:21.405Z,99772.3
2022-11-24T12:25:25.766Z,99768.13
2022-11-24T12:27:30.098Z,99769.79
2022-11-24T12:29:37.870Z,99767.58
2022-11-24T12:31:42.315Z,99769.76
2022-11-24T12:33:55.334Z,99773.29
2022-11-24T12:36:04.983Z,99770.27
2022-11-24T12:38:09.265Z,99770.33
2022-11-24T12:40:13.616Z,99774.23
2022-11-24T12:42:18.018Z,99768.89
2022-11-24T12:44:22.388Z,99777.75
2022-11-24T12:46:26.990Z,99775.51
2022-11-24T12:48:31.456Z,99771.16
2022-11-24T12:50:35.772Z,99775.89
2022-11-24T12:52:40.104Z,99783.35
2022-11-24T12:54:44.426Z,99783.55
2022-11-24T12:56:48.760Z,99783.2
2022-11-24T12:58:53.111Z,99787.04
2022-11-24T13:00:57.459Z,99787.56
2022-11-24T13:03:02.335Z,99781.98
2022-11-24T13:05:06.882Z,99783.41
2022-11-24T13:07:11.396Z,99786.77
2022-11-24T13:09:15.847Z,99786.67
2022-11-24T13:11:20.244Z,99790
2022-11-24T13:13:24.653Z,99793.16
2022-11-24T13:15:47.183Z,99794.85
2022-11-24T13:18:17.009Z,99802.7
2022-11-24T13:20:21.473Z,99802.25
2022-11-24T13:22:25.798Z,99803.27
2022-11-24T13:24:30.144Z,99809.55
2022-11-24T13:26:41.452Z,99813.63
2022-11-24T13:29:13.240Z,99811.87
2022-11-24T13:31:28.929Z,99805.75
2022-11-24T13:33:33.652Z,99806.5
2022-11-24T13:35:38.023Z,99811.63
2022-11-24T13:37:42.312Z,99812.19
2022-11-24T13:39:51.493Z,99807.06
2022-11-24T13:41:55.849Z,99808.58
2022-11-24T13:44:00.196Z,99812.17
2022-11-24T13:46:04.537Z,99811.98
2022-11-24T13:48:08.878Z,99813.31
2022-11-24T13:50:13.314Z,99812.21
2022-11-24T13:52:17.837Z,99815.05
2022-11-24T13:54:22.156Z,99816
2022-11-24T13:56:26.589Z,99804.34
2022-11-24T13:58:30.912Z,99806.75
2022-11-24T14:00:35.292Z,99811.98
2022-11-24T14:02:39.759Z,99814.56
2022-11-24T14:04:45.059Z,99815.39
2022-11-24T14:06:50.272Z,99824.2
2022-11-24T14:08:54.650Z,99834.17
2022-11-24T14:10:59.059Z,99834.12
2022-11-24T14:13:03.434Z,99828.02
2022-11-24T14:15:07.771Z,99828.72
2022-11-24T14:17:12.105Z,99829.16
2022-11-24T14:19:16.476Z,99833.66
2022-11-24T14:21:20.943Z,99834.56
2022-11-24T14:23:25.308Z,99836.59
2022-11-24T14:25:29.633Z,99839.76
2022-11-24T14:27:33.991Z,99840.16
2022-11-24T14:29:38.291Z,99840.54
2022-11-24T14:31:42.942Z,99838.34
2022-11-24T14:33:47.410Z,99837.63
2022-11-24T14:35:51.803Z,99837.15
2022-11-24T14:37:56.127Z,99845.03
2022-11-24T14:40:00.402Z,99848.09
2022-11-24T14:42:04.920Z,99855.26
2022-11-24T14:44:09.443Z,99855.28
2022-11-24T14:46:14.058Z,99855.27
2022-11-24T14:48:18.692Z,99858.26
2022-11-24T14:50:23.180Z,99857.98
2022-11-24T14:52:27.656Z,99857.77
2022-11-24T14:54:32.196Z,99860.45
2022-11-24T14:56:37.344Z,99860.86
2022-11-24T14:58:43.676Z,99860.38
2022-11-24T15:00:48.114Z,99858.09
2022-11-24T15:02:52.584Z,99862.71
2022-11-24T15:05:04.568Z,99864.2
2022-11-24T15:07:10.029Z,99860.71
2022-11-24T15:09:14.408Z,99862.55
2022-11-24T15:11:18.864Z,99865.98
2022-11-24T15:13:23.185Z,99864.78
2022-11-24T15:15:27.556Z,99871.34
2022-11-24T15:17:31.920Z,99873.27
2022-11-24T15:19:36.232Z,99876.23
2022-11-24T15:21:40.595Z,99877.96
2022-11-24T15:23:44.943Z,99882.05
2022-11-24T15:25:49.289Z,99886.97
2022-11-24T15:27:53.653Z,99885.55
2022-11-24T15:29:57.974Z,99886.3
2022-11-24T15:32:02.538Z,99890.63
2022-11-24T15:34:06.903Z,99891.09
2022-11-24T15:36:11.213Z,99892.67
2022-11-24T15:38:15.592Z,99897.94
2022-11-24T15:40:19.925Z,99905.73
2022-11-24T15:42:24.255Z,99905.17
2022-11-24T15:44:28.618Z,99903.61
2022-11-24T15:46:33.089Z,99903.34
2022-11-24T15:48:37.570Z,99905.3
2022-11-24T15:50:41.846Z,99906.58
2022-11-24T15:52:46.169Z,99907.27
2022-11-24T15:54:50.525Z,99906.02
2022-11-24T15:56:54.822Z,99905.44
2022-11-24T15:58:59.227Z,99910.55
2022-11-24T16:01:03.787Z,99909.73
2022-11-24T16:03:47.257Z,99912.41
2022-11-24T16:05:52.863Z,99909.75
2022-11-24T16:07:57.361Z,99912.56
2022-11-24T16:10:01.940Z,99912.8
2022-11-24T16:12:06.431Z,99915.86
2022-11-24T16:14:10.970Z,99912.89
2022-11-24T16:16:15.661Z,99911.16
2022-11-24T16:18:20.127Z,99916.95
2022-11-24T16:20:24.482Z,99916.47
2022-11-24T16:22:28.795Z,99925.16
2022-11-24T16:24:34.260Z,99921.95
2022-11-24T16:26:39.316Z,99933.52
2022-11-24T16:28:43.635Z,99928.47
2022-11-24T16:30:47.973Z,99929.49
2022-11-24T16:32:52.306Z,99930.03
2022-11-24T16:34:56.854Z,99927.91
2022-11-24T16:37:01.225Z,99927.84
2022-11-24T16:39:05.540Z,99928.95
2022-11-24T16:41:09.880Z,99930.8
2022-11-24T16:43:14.254Z,99934.05
2022-11-24T16:45:18.583Z,99935.97
2022-11-24T16:47:22.923Z,99936.16
2022-11-24T16:49:27.263Z,99942.75
2022-11-24T16:51:36.041Z,99949.88
2022-11-24T16:53:40.342Z,99949.08
2022-11-24T16:55:44.716Z,99955.2
2022-11-24T16:57:49.044Z,99952.05
2022-11-24T16:59:53.376Z,99962.11
2022-11-24T17:01:57.846Z,99960.09
2022-11-24T17:04:02.325Z,99975.45
2022-11-24T17:06:10.433Z,99983.02
2022-11-24T17:08:14.896Z,99981.51
2022-11-24T17:10:19.212Z,99979.66
2022-11-24T17:12:23.536Z,99981.83
2022-11-24T17:14:27.849Z,99984
2022-11-24T17:16:32.275Z,99986.81
2022-11-24T17:18:36.720Z,99989.33
2022-11-24T17:20:41.628Z,99993.14
2022-11-24T17:22:45.965Z,99993.41
2022-11-24T17:24:50.334Z,99995.08
2022-11-24T17:26:54.745Z,99998.77
2022-11-24T17:28:59.177Z,100001.25
2022-11-24T17:31:03.623Z,100001.63
2022-11-24T17:33:08.076Z,100003.3
2022-11-24T17:35:12.495Z,100008.19
2022-11-24T17:37:16.940Z,100010.06
2022-11-24T17:39:26.015Z,100007.94
2022-11-24T17:41:30.384Z,100009.41
2022-11-24T17:43:34.804Z,100011.63
2022-11-24T17:45:39.303Z,100010.17
2022-11-24T17:47:43.797Z,100011.09
2022-11-24T17:49:48.151Z,100009.47
2022-11-24T17:51:52.603Z,100013.33
2022-11-24T17:53:57.059Z,100018.59
2022-11-24T17:56:01.444Z,100009.98
2022-11-24T17:58:05.840Z,100008.23
2022-11-24T18:00:10.209Z,100012.09
2022-11-24T18:02:14.754Z,100009.84
2022-11-24T18:04:19.248Z,100010.02
2022-11-24T18:06:23.626Z,100027.91
2022-11-24T18:08:28.053Z,100029.73
2022-11-24T18:10:32.463Z,100032.52
2022-11-24T18:12:36.894Z,100033.98
2022-11-24T18:14:41.298Z,100034.47
2022-11-24T18:16:45.848Z,100039.33
2022-11-24T18:19:00.653Z,100043.08
2022-11-24T18:21:13.013Z,100033.81
2022-11-24T18:23:17.497Z,100035.56
2022-11-24T18:25:21.914Z,100039.27
2022-11-24T18:27:26.290Z,100036.19
2022-11-24T18:29:30.747Z,100037.66
2022-11-24T18:31:35.996Z,100038.31
2022-11-24T18:33:40.749Z,100047.05
2022-11-24T18:35:45.179Z,100038.9
2022-11-24T18:37:49.596Z,100034.4
2022-11-24T18:39:54.020Z,100034.45
2022-11-24T18:41:58.462Z,100035.13
2022-11-24T18:44:03.016Z,100037.08
2022-11-24T18:46:07.763Z,100032.45
2022-11-24T18:48:12.335Z,100045.7
2022-11-24T18:50:16.803Z,100046.69
2022-11-24T18:52:21.185Z,100039.25
2022-11-24T18:54:25.611Z,100029.78
2022-11-24T18:56:30.058Z,100032.32
2022-11-24T18:58:34.483Z,100031.95
2022-11-24T19:00:38.855Z,100031.83
2022-11-24T19:02:43.319Z,100031.12
2022-11-24T19:04:47.867Z,100035.11
2022-11-24T19:06:52.297Z,100035.94
2022-11-24T19:08:56.734Z,100038.58
2022-11-24T19:11:01.175Z,100039.1
2022-11-24T19:13:05.603Z,100038.7
2022-11-24T19:15:09.957Z,100042.55
2022-11-24T19:17:14.389Z,100041.83
2022-11-24T19:19:18.764Z,100041.38
2022-11-24T19:21:23.315Z,100035.55
2022-11-24T19:23:27.778Z,100033.09
2022-11-24T19:25:32.248Z,100032.95
2022-11-24T19:27:36.658Z,100037.95
2022-11-24T19:29:44.148Z,100037.64
2022-11-24T19:31:48.665Z,100040.54
2022-11-24T19:33:53.256Z,100045.54
2022-11-24T19:35:57.629Z,100045.33
2022-11-24T19:38:02.072Z,100047.61
2022-11-24T19:40:06.532Z,100054.78
2022-11-24T19:42:10.958Z,100060.39
2022-11-24T19:44:15.346Z,100062.22
2022-11-24T19:46:19.898Z,100066.63
2022-11-24T19:48:24.407Z,100067.03
2022-11-24T19:50:28.778Z,100070.13
2022-11-24T19:52:33.135Z,100073.02
2022-11-24T19:54:38.020Z,100074.98
2022-11-24T19:56:42.417Z,100077.47
2022-11-24T19:58:46.765Z,100076.72
2022-11-24T20:00:51.293Z,100078.58
2022-11-24T20:02:55.867Z,100079.13
2022-11-24T20:05:00.366Z,100082.87
2022-11-24T20:07:04.676Z,100080.21
2022-11-24T20:09:08.984Z,100080.91
2022-11-24T20:11:13.318Z,100081.38
2022-11-24T20:13:17.743Z,100088.52
2022-11-24T20:15:22.111Z,100089.2
2022-11-24T20:17:26.513Z,100095.73
2022-11-24T20:19:30.979Z,100100.02
2022-11-24T20:21:35.378Z,100103.14
2022-11-24T20:23:39.791Z,100103.27
2022-11-24T20:25:44.188Z,100106.17
2022-11-24T20:27:48.600Z,100113.34
2022-11-24T20:29:53.007Z,100112.02
2022-11-24T20:31:57.834Z,100112.14
2022-11-24T20:34:02.502Z,100116.16
2022-11-24T20:36:06.943Z,100121.59
2022-11-24T20:38:11.361Z,100120.27
2022-11-24T20:40:15.784Z,100119.08
2022-11-24T20:42:20.157Z,100118.97
2022-11-24T20:44:24.550Z,100116.17
2022-11-24T20:46:28.956Z,100119.54
2022-11-24T20:48:33.440Z,100118.07
2022-11-24T20:50:37.823Z,100119.53
2022-11-24T20:52:42.290Z,100123.92
2022-11-24T20:54:46.709Z,100126.71
2022-11-24T20:56:51.131Z,100124.43
2022-11-24T20:58:55.570Z,100130.09
2022-11-24T21:01:00.519Z,100129.88
2022-11-24T21:03:05.065Z,100133.45
2022-11-24T21:05:09.477Z,100131.69
2022-11-24T21:07:14.081Z,100130.44
2022-11-24T21:09:18.560Z,100133.56
2022-11-24T21:11:22.960Z,100133.22
2022-11-24T21:13:27.344Z,100135.39
2022-11-24T21:15:31.703Z,100138.08
2022-11-24T21:17:36.085Z,100139.65
2022-11-24T21:19:40.469Z,100143.15
2022-11-24T21:21:44.860Z,100144.61
2022-11-24T21:23:49.245Z,100143.92
2022-11-24T21:25:53.657Z,100145.52
2022-11-24T21:27:58.045Z,100145.42
2022-11-24T21:30:02.436Z,100149.81
2022-11-24T21:32:07.015Z,100151.5
2022-11-24T21:34:11.549Z,100148.75
2022-11-24T21:36:15.935Z,100147.41
2022-11-24T21:38:20.298Z,100144.65
2022-11-24T21:40:24.694Z,100148.35
2022-11-24T21:42:29.099Z,100153.55
2022-11-24T21:44:34.463Z,100152.36
2022-11-24T21:46:52.549Z,100147.97
2022-11-24T21:48:59.798Z,100153.12
2022-11-24T21:51:04.187Z,100152.38
2022-11-24T21:53:08.637Z,100154.27
2022-11-24T21:55:13.080Z,100156.93
2022-11-24T21:57:17.513Z,100156.97
2022-11-24T21:59:21.911Z,100160.57
2022-11-24T22:01:26.496Z,100160.42
2022-11-24T22:03:31.108Z,100161.55
2022-11-24T22:05:35.481Z,100159.09
2022-11-24T22:07:40.011Z,100158.2
2022-11-24T22:09:44.552Z,100158.09
2022-11-24T22:11:48.901Z,100160.51
2022-11-24T22:13:53.285Z,100160.74
2022-11-24T22:15:57.796Z,100160.37
2022-11-24T22:18:02.278Z,100166.05
2022-11-24T22:20:06.642Z,100164.34
2022-11-24T22:22:11.047Z,100160.63
2022-11-24T22:24:15.448Z,100159.38
2022-11-24T22:26:19.843Z,100160.39
2022-11-24T22:28:24.299Z,100160.25
2022-11-24T22:30:28.669Z,100157.9
2022-11-24T22:32:33.107Z,100160.8
2022-11-24T22:34:38.096Z,100173.2
2022-11-24T22:36:42.688Z,100177.3
2022-11-24T22:38:47.107Z,100178.34
2022-11-24T22:40:51.548Z,100176.3
2022-11-24T22:42:55.973Z,100173.79
2022-11-24T22:45:00.485Z,100180.55
2022-11-24T22:47:04.842Z,100184.02
2022-11-24T22:49:09.267Z,100189.45
2022-11-24T22:51:13.635Z,100189.41
2022-11-24T22:53:18.000Z,100196.7
2022-11-24T22:55:22.358Z,100199.33
2022-11-24T22:57:26.732Z,100195.59
2022-11-24T22:59:31.144Z,100199.88
2022-11-24T23:01:35.562Z,100200.98
2022-11-24T23:03:40.088Z,100202.38
2022-11-24T23:05:44.544Z,100199.89
2022-11-24T23:07:49.054Z,100207.5
2022-11-24T23:09:53.654Z,100204.27
2022-11-24T23:11:58.051Z,100208.81
2022-11-24T23:14:02.534Z,100209.45
2022-11-24T23:16:06.993Z,100206.5
2022-11-24T23:18:11.430Z,100206.6
2022-11-24T23:20:15.789Z,100201.3
2022-11-24T23:22:20.148Z,100198.03
2022-11-24T23:24:24.545Z,100193.17
2022-11-24T23:26:28.919Z,100199.45
2022-11-24T23:28:33.294Z,100194.76
2022-11-24T23:30:37.711Z,100198.56
2022-11-24T23:32:42.146Z,100200.92
2022-11-24T23:34:46.497Z,100203.74
2022-11-24T23:36:50.863Z,100203.47
2022-11-24T23:38:55.246Z,100203.26
2022-11-24T23:40:59.630Z,100202.88
2022-11-24T23:43:03.999Z,100206.17
2022-11-24T23:45:08.396Z,100209.42
2022-11-24T23:47:12.790Z,100208.77
2022-11-24T23:49:17.188Z,100208.73
2022-11-24T23:51:21.609Z,100208.55
2022-11-24T23:53:26.026Z,100206.99
2022-11-24T23:55:30.492Z,100204.78
2022-11-24T23:57:34.850Z,100198.33
2022-11-24T23:59:39.264Z,100197.91
